Arthur Maersk — OXJH2 — position and weather

sailwx.info

Track history (hours):
 
Tides and Currents Weather Stations Pressure Air Temp Water Temp Dewpoint Dewpoint Depression Visibility Wind Speed Wind Dir Waves Ship Positions

Arthur Maersk

Last reported at 2017-Sep-15 07:00 UTC. Time now 2017-Sep-24 13:53 UTC.
Position N 01°21' E 103°18'.
Warning: this ship's position is 9 days out of date.

Length 352 m; draft 13.7 m.

Type: Cargo ship. MMSI: 220221000.

Date/timePositionNaut miles runAvg speedWind from/ knotsBaromVisibWave heightAir tempDewpointWater temp
2017-Sep-15 07:00N 01°21' E 103°18'918.4
2017-Sep-15 06:30N 01°15' E 103°25'917.4
2017-Sep-15 06:00N 01°12' E 103°33'612.2
2017-Sep-15 05:30N 01°12' E 103°39'612.4
2017-Sep-15 05:00N 01°16' E 103°44'2 3.1
2017-Sep-15 04:28N 01°16' E 103°46'0 0.0
2017-Sep-15 03:55N 01°16' E 103°46'0 0.0
2017-Sep-15 03:19N 01°16' E 103°46'0 0.0
2017-Sep-15 02:58N 01°16' E 103°46'0 0.0
2017-Sep-15 02:28N 01°16' E 103°46'0 0.0
2017-Sep-15 01:58N 01°16' E 103°46'0 0.0
2017-Sep-15 01:28N 01°16' E 103°46'0 0.0
2017-Sep-15 00:58N 01°16' E 103°46'0 0.0
2017-Sep-15 00:25N 01°16' E 103°46'0 0.0
2017-Sep-14 23:55N 01°16' E 103°46'0 0.0
2017-Sep-14 23:22N 01°16' E 103°46'0 0.0
2017-Sep-14 22:55N 01°16' E 103°46'0 0.0
2017-Sep-14 22:25N 01°16' E 103°46'0 0.0
2017-Sep-14 21:58N 01°16' E 103°46'0 0.0
2017-Sep-14 21:04N 01°16' E 103°46'0 0.1
2017-Sep-14 20:58N 01°16' E 103°46'0 0.0
2017-Sep-14 20:28N 01°16' E 103°46'0 0.0
2017-Sep-14 19:43N 01°16' E 103°46'0 0.0
2017-Sep-14 19:19N 01°16' E 103°46'0 0.0
2017-Sep-14 18:55N 01°16' E 103°46'0 0.0
2017-Sep-14 18:25N 01°16' E 103°46'0 0.0
2017-Sep-14 17:49N 01°16' E 103°46'0 0.0
2017-Sep-14 17:25N 01°16' E 103°46'0 0.0
2017-Sep-14 16:55N 01°16' E 103°46'0 0.0
2017-Sep-14 16:25N 01°16' E 103°46'0 0.0
2017-Sep-14 15:55N 01°16' E 103°46'0 0.0
2017-Sep-14 15:07N 01°16' E 103°46'0 0.0
2017-Sep-14 14:55N 01°16' E 103°46'0 0.0
2017-Sep-14 14:19N 01°16' E 103°46'0 0.0
2017-Sep-14 13:55N 01°16' E 103°46'0 0.0
2017-Sep-14 13:19N 01°16' E 103°46'0 0.0
2017-Sep-14 12:55N 01°16' E 103°46'0 0.0
2017-Sep-14 12:25N 01°16' E 103°46'0 0.0
2017-Sep-14 11:46N 01°16' E 103°46'0 0.0
2017-Sep-14 11:16N 01°16' E 103°46'0 0.0
2017-Sep-14 10:46N 01°16' E 103°46'0 0.0
2017-Sep-14 09:13N 01°16' E 103°46'0 0.0
2017-Sep-14 08:55N 01°16' E 103°46'0 0.0
2017-Sep-14 06:07N 01°16' E 103°46'0 0.0
2017-Sep-14 05:40N 01°16' E 103°46'0 0.0
2017-Sep-14 05:16N 01°16' E 103°46'0 0.1
2017-Sep-14 04:59N 01°16' E 103°46'1 1.3
2017-Sep-14 04:30N 01°16' E 103°46'4 7.2
2017-Sep-14 04:00N 01°13' E 103°48'510.8
2017-Sep-14 03:30N 01°14' E 103°54'5 9.7
2017-Sep-14 03:00N 01°15' E 103°58'712.3
2017-Sep-14 02:28N 01°16' E 104°05'  
2017-Sep-06 08:41N 22°31' E 119°59'2 4.7
2017-Sep-06 08:14N 22°32' E 120°01'1 4.8
2017-Sep-06 08:00N 22°32' E 120°02'2 5.0
2017-Sep-06 07:30N 22°32' E 120°05'4 8.2
2017-Sep-06 07:00N 22°32' E 120°09'611.5
2017-Sep-06 06:30N 22°33' E 120°15'4 8.0
2017-Sep-06 06:00N 22°33' E 120°20'0 0.1
2017-Sep-06 05:29N 22°33' E 120°20'0 0.0
2017-Sep-06 04:47N 22°33' E 120°20'0 0.0
2017-Sep-06 04:29N 22°33' E 120°20'0 0.0
2017-Sep-06 01:59N 22°33' E 120°20'0 0.0
2017-Sep-06 01:29N 22°33' E 120°20'0 0.0
2017-Sep-06 00:59N 22°33' E 120°20'0 0.0
2017-Sep-06 00:29N 22°33' E 120°20'0 0.0
2017-Sep-05 23:59N 22°33' E 120°20'0 0.0
2017-Sep-05 23:29N 22°33' E 120°20'0 0.0
2017-Sep-05 22:47N 22°33' E 120°20'0 0.0
2017-Sep-05 22:29N 22°33' E 120°20'0 0.0
2017-Sep-05 17:53N 22°33' E 120°20'0 0.0
2017-Sep-05 17:29N 22°33' E 120°20'0 0.0
2017-Sep-05 16:59N 22°33' E 120°20'0 0.4
2017-Sep-05 16:30N 22°33' E 120°19'3 5.9
2017-Sep-05 16:00N 22°33' E 120°16'1 2.1
2017-Sep-05 15:30N 22°32' E 120°15'3 6.5
2017-Sep-05 15:00N 22°33' E 120°12'816.8
2017-Sep-05 14:30N 22°40' E 120°08'918.3
2017-Sep-05 14:00N 22°48' E 120°03'  
Track history (hours):
 
Tides and Currents Weather Stations Pressure Air Temp Water Temp Dewpoint Dewpoint Depression Visibility Wind Speed Wind Dir Waves Ship Positions

Arthur Maersk

Last reported at 2017-Sep-15 07:00 UTC. Time now 2017-Sep-24 13:53 UTC.
Position N 01°21' E 103°18'.
Warning: this ship's position is 9 days out of date.

Length 352 m; draft 13.7 m.

Type: Cargo ship. MMSI: 220221000.

Date/timePositionNaut miles runAvg speedWind from/ knotsBaromVisibWave heightAir tempDewpointWater temp
2017-Sep-15 07:00N 01°21' E 103°18'918.4
2017-Sep-15 06:30N 01°15' E 103°25'917.4
2017-Sep-15 06:00N 01°12' E 103°33'612.2
2017-Sep-15 05:30N 01°12' E 103°39'612.4
2017-Sep-15 05:00N 01°16' E 103°44'2 3.1
2017-Sep-15 04:28N 01°16' E 103°46'0 0.0
2017-Sep-15 03:55N 01°16' E 103°46'0 0.0
2017-Sep-15 03:19N 01°16' E 103°46'0 0.0
2017-Sep-15 02:58N 01°16' E 103°46'0 0.0
2017-Sep-15 02:28N 01°16' E 103°46'0 0.0
2017-Sep-15 01:58N 01°16' E 103°46'0 0.0
2017-Sep-15 01:28N 01°16' E 103°46'0 0.0
2017-Sep-15 00:58N 01°16' E 103°46'0 0.0
2017-Sep-15 00:25N 01°16' E 103°46'0 0.0
2017-Sep-14 23:55N 01°16' E 103°46'0 0.0
2017-Sep-14 23:22N 01°16' E 103°46'0 0.0
2017-Sep-14 22:55N 01°16' E 103°46'0 0.0
2017-Sep-14 22:25N 01°16' E 103°46'0 0.0
2017-Sep-14 21:58N 01°16' E 103°46'0 0.0
2017-Sep-14 21:04N 01°16' E 103°46'0 0.1
2017-Sep-14 20:58N 01°16' E 103°46'0 0.0
2017-Sep-14 20:28N 01°16' E 103°46'0 0.0
2017-Sep-14 19:43N 01°16' E 103°46'0 0.0
2017-Sep-14 19:19N 01°16' E 103°46'0 0.0
2017-Sep-14 18:55N 01°16' E 103°46'0 0.0
2017-Sep-14 18:25N 01°16' E 103°46'0 0.0
2017-Sep-14 17:49N 01°16' E 103°46'0 0.0
2017-Sep-14 17:25N 01°16' E 103°46'0 0.0
2017-Sep-14 16:55N 01°16' E 103°46'0 0.0
2017-Sep-14 16:25N 01°16' E 103°46'0 0.0
2017-Sep-14 15:55N 01°16' E 103°46'0 0.0
2017-Sep-14 15:07N 01°16' E 103°46'0 0.0
2017-Sep-14 14:55N 01°16' E 103°46'0 0.0
2017-Sep-14 14:19N 01°16' E 103°46'0 0.0
2017-Sep-14 13:55N 01°16' E 103°46'0 0.0
2017-Sep-14 13:19N 01°16' E 103°46'0 0.0
2017-Sep-14 12:55N 01°16' E 103°46'0 0.0
2017-Sep-14 12:25N 01°16' E 103°46'0 0.0
2017-Sep-14 11:46N 01°16' E 103°46'0 0.0
2017-Sep-14 11:16N 01°16' E 103°46'0 0.0
2017-Sep-14 10:46N 01°16' E 103°46'0 0.0
2017-Sep-14 09:13N 01°16' E 103°46'0 0.0
2017-Sep-14 08:55N 01°16' E 103°46'0 0.0
2017-Sep-14 06:07N 01°16' E 103°46'0 0.0
2017-Sep-14 05:40N 01°16' E 103°46'0 0.0
2017-Sep-14 05:16N 01°16' E 103°46'0 0.1
2017-Sep-14 04:59N 01°16' E 103°46'1 1.3
2017-Sep-14 04:30N 01°16' E 103°46'4 7.2
2017-Sep-14 04:00N 01°13' E 103°48'510.8
2017-Sep-14 03:30N 01°14' E 103°54'5 9.7
2017-Sep-14 03:00N 01°15' E 103°58'712.3
2017-Sep-14 02:28N 01°16' E 104°05'  
2017-Sep-06 08:41N 22°31' E 119°59'2 4.7
2017-Sep-06 08:14N 22°32' E 120°01'1 4.8
2017-Sep-06 08:00N 22°32' E 120°02'2 5.0
2017-Sep-06 07:30N 22°32' E 120°05'4 8.2
2017-Sep-06 07:00N 22°32' E 120°09'611.5
2017-Sep-06 06:30N 22°33' E 120°15'4 8.0
2017-Sep-06 06:00N 22°33' E 120°20'0 0.1
2017-Sep-06 05:29N 22°33' E 120°20'0 0.0
2017-Sep-06 04:47N 22°33' E 120°20'0 0.0
2017-Sep-06 04:29N 22°33' E 120°20'0 0.0
2017-Sep-06 01:59N 22°33' E 120°20'0 0.0
2017-Sep-06 01:29N 22°33' E 120°20'0 0.0
2017-Sep-06 00:59N 22°33' E 120°20'0 0.0
2017-Sep-06 00:29N 22°33' E 120°20'0 0.0
2017-Sep-05 23:59N 22°33' E 120°20'0 0.0
2017-Sep-05 23:29N 22°33' E 120°20'0 0.0
2017-Sep-05 22:47N 22°33' E 120°20'0 0.0
2017-Sep-05 22:29N 22°33' E 120°20'0 0.0
2017-Sep-05 17:53N 22°33' E 120°20'0 0.0
2017-Sep-05 17:29N 22°33' E 120°20'0 0.0
2017-Sep-05 16:59N 22°33' E 120°20'0 0.4
2017-Sep-05 16:30N 22°33' E 120°19'3 5.9
2017-Sep-05 16:00N 22°33' E 120°16'1 2.1
2017-Sep-05 15:30N 22°32' E 120°15'3 6.5
2017-Sep-05 15:00N 22°33' E 120°12'816.8
2017-Sep-05 14:30N 22°40' E 120°08'918.3
2017-Sep-05 14:00N 22°48' E 120°03'  

Dump ship's entire track history